sensor_id;sensor_type;location;lat;lon;timestamp;P1;durP1;ratioP1;P2;durP2;ratioP2
41293;SDS011;27037;52.010;4.446;2023-06-22T00:00:27;36.20;;;22.08;;
41293;SDS011;27037;52.010;4.446;2023-06-22T00:02:53;31.33;;;21.58;;
41293;SDS011;27037;52.010;4.446;2023-06-22T00:05:18;38.38;;;22.30;;
41293;SDS011;27037;52.010;4.446;2023-06-22T00:07:44;34.28;;;22.23;;
41293;SDS011;27037;52.010;4.446;2023-06-22T00:10:09;35.08;;;22.45;;
41293;SDS011;27037;52.010;4.446;2023-06-22T00:12:35;32.17;;;21.65;;
41293;SDS011;27037;52.010;4.446;2023-06-22T00:15:00;34.40;;;22.55;;
41293;SDS011;27037;52.010;4.446;2023-06-22T00:17:26;34.80;;;22.10;;
41293;SDS011;27037;52.010;4.446;2023-06-22T00:19:52;32.22;;;22.58;;
41293;SDS011;27037;52.010;4.446;2023-06-22T00:22:18;34.80;;;22.27;;
41293;SDS011;27037;52.010;4.446;2023-06-22T00:24:53;38.03;;;24.17;;
41293;SDS011;27037;52.010;4.446;2023-06-22T00:27:19;41.45;;;23.58;;
41293;SDS011;27037;52.010;4.446;2023-06-22T00:29:45;36.90;;;23.00;;
41293;SDS011;27037;52.010;4.446;2023-06-22T00:32:10;36.30;;;23.55;;
41293;SDS011;27037;52.010;4.446;2023-06-22T00:34:36;36.55;;;22.08;;
41293;SDS011;27037;52.010;4.446;2023-06-22T00:37:01;37.85;;;24.27;;
41293;SDS011;27037;52.010;4.446;2023-06-22T00:39:27;35.38;;;23.33;;
41293;SDS011;27037;52.010;4.446;2023-06-22T00:41:53;38.85;;;24.48;;
41293;SDS011;27037;52.010;4.446;2023-06-22T00:44:18;38.60;;;24.23;;
41293;SDS011;27037;52.010;4.446;2023-06-22T00:46:44;40.08;;;24.10;;
41293;SDS011;27037;52.010;4.446;2023-06-22T00:49:09;39.67;;;23.77;;
41293;SDS011;27037;52.010;4.446;2023-06-22T00:51:35;38.67;;;23.63;;
41293;SDS011;27037;52.010;4.446;2023-06-22T00:54:03;40.33;;;23.83;;
41293;SDS011;27037;52.010;4.446;2023-06-22T00:56:30;36.15;;;23.25;;
41293;SDS011;27037;52.010;4.446;2023-06-22T00:58:57;38.08;;;23.50;;
41293;SDS011;27037;52.010;4.446;2023-06-22T01:01:24;38.90;;;24.45;;
41293;SDS011;27037;52.010;4.446;2023-06-22T01:03:50;37.70;;;23.45;;
41293;SDS011;27037;52.010;4.446;2023-06-22T01:06:18;38.53;;;23.23;;
41293;SDS011;27037;52.010;4.446;2023-06-22T01:08:57;33.50;;;22.13;;
41293;SDS011;27037;52.010;4.446;2023-06-22T01:11:36;38.15;;;21.98;;
41293;SDS011;27037;52.010;4.446;2023-06-22T01:14:10;33.60;;;22.85;;
41293;SDS011;27037;52.010;4.446;2023-06-22T01:16:41;36.00;;;23.30;;
41293;SDS011;27037;52.010;4.446;2023-06-22T01:22:00;37.10;;;21.67;;
41293;SDS011;27037;52.010;4.446;2023-06-22T01:24:43;39.42;;;22.00;;
41293;SDS011;27037;52.010;4.446;2023-06-22T01:29:55;33.75;;;22.60;;
41293;SDS011;27037;52.010;4.446;2023-06-22T01:32:30;35.53;;;21.67;;
41293;SDS011;27037;52.010;4.446;2023-06-22T01:34:57;35.90;;;22.70;;
41293;SDS011;27037;52.010;4.446;2023-06-22T01:37:25;35.53;;;21.77;;
41293;SDS011;27037;52.010;4.446;2023-06-22T01:39:52;34.60;;;22.67;;
41293;SDS011;27037;52.010;4.446;2023-06-22T01:42:20;37.35;;;23.45;;
41293;SDS011;27037;52.010;4.446;2023-06-22T01:44:46;35.92;;;23.00;;
41293;SDS011;27037;52.010;4.446;2023-06-22T01:47:12;39.25;;;24.48;;
41293;SDS011;27037;52.010;4.446;2023-06-22T01:49:39;41.35;;;24.80;;
41293;SDS011;27037;52.010;4.446;2023-06-22T01:52:06;42.83;;;25.25;;
41293;SDS011;27037;52.010;4.446;2023-06-22T01:54:32;42.08;;;26.00;;
41293;SDS011;27037;52.010;4.446;2023-06-22T01:56:58;44.05;;;25.88;;
41293;SDS011;27037;52.010;4.446;2023-06-22T01:59:29;43.95;;;25.85;;
41293;SDS011;27037;52.010;4.446;2023-06-22T02:02:06;45.15;;;26.30;;
41293;SDS011;27037;52.010;4.446;2023-06-22T02:04:36;41.83;;;25.50;;
41293;SDS011;27037;52.010;4.446;2023-06-22T02:07:06;42.88;;;25.85;;
41293;SDS011;27037;52.010;4.446;2023-06-22T02:09:36;44.58;;;27.08;;
41293;SDS011;27037;52.010;4.446;2023-06-22T02:12:06;40.70;;;25.52;;
41293;SDS011;27037;52.010;4.446;2023-06-22T02:14:35;40.58;;;26.20;;
41293;SDS011;27037;52.010;4.446;2023-06-22T02:17:02;44.33;;;26.48;;
41293;SDS011;27037;52.010;4.446;2023-06-22T02:19:29;42.47;;;26.05;;
41293;SDS011;27037;52.010;4.446;2023-06-22T02:21:58;43.92;;;25.42;;
41293;SDS011;27037;52.010;4.446;2023-06-22T02:24:24;43.10;;;25.88;;
41293;SDS011;27037;52.010;4.446;2023-06-22T02:26:49;42.25;;;25.95;;
41293;SDS011;27037;52.010;4.446;2023-06-22T02:29:15;43.20;;;25.27;;
41293;SDS011;27037;52.010;4.446;2023-06-22T02:31:41;41.42;;;25.98;;
41293;SDS011;27037;52.010;4.446;2023-06-22T02:34:06;43.90;;;27.30;;
41293;SDS011;27037;52.010;4.446;2023-06-22T02:36:32;44.30;;;26.60;;
41293;SDS011;27037;52.010;4.446;2023-06-22T02:38:58;45.22;;;27.10;;
41293;SDS011;27037;52.010;4.446;2023-06-22T02:41:26;47.25;;;27.65;;
41293;SDS011;27037;52.010;4.446;2023-06-22T02:43:52;48.25;;;28.60;;
41293;SDS011;27037;52.010;4.446;2023-06-22T02:46:18;47.38;;;28.67;;
41293;SDS011;27037;52.010;4.446;2023-06-22T02:48:43;45.63;;;27.65;;
41293;SDS011;27037;52.010;4.446;2023-06-22T02:51:09;44.20;;;27.35;;
41293;SDS011;27037;52.010;4.446;2023-06-22T02:53:34;45.15;;;27.80;;
41293;SDS011;27037;52.010;4.446;2023-06-22T02:56:01;49.05;;;29.48;;
41293;SDS011;27037;52.010;4.446;2023-06-22T02:58:31;48.63;;;28.00;;
41293;SDS011;27037;52.010;4.446;2023-06-22T03:01:04;44.13;;;27.92;;
41293;SDS011;27037;52.010;4.446;2023-06-22T03:03:30;47.70;;;29.70;;
41293;SDS011;27037;52.010;4.446;2023-06-22T03:05:56;49.17;;;30.25;;
41293;SDS011;27037;52.010;4.446;2023-06-22T03:08:21;45.08;;;29.88;;
41293;SDS011;27037;52.010;4.446;2023-06-22T03:10:47;50.08;;;30.25;;
41293;SDS011;27037;52.010;4.446;2023-06-22T03:13:12;50.13;;;29.92;;
41293;SDS011;27037;52.010;4.446;2023-06-22T03:15:38;49.05;;;28.95;;
41293;SDS011;27037;52.010;4.446;2023-06-22T03:18:04;51.35;;;32.25;;
41293;SDS011;27037;52.010;4.446;2023-06-22T03:20:30;45.72;;;28.73;;
41293;SDS011;27037;52.010;4.446;2023-06-22T03:22:58;52.63;;;30.65;;
41293;SDS011;27037;52.010;4.446;2023-06-22T03:25:24;50.72;;;29.45;;
41293;SDS011;27037;52.010;4.446;2023-06-22T03:27:50;55.97;;;33.05;;
41293;SDS011;27037;52.010;4.446;2023-06-22T03:30:16;53.90;;;30.55;;
41293;SDS011;27037;52.010;4.446;2023-06-22T03:32:41;53.60;;;30.98;;
41293;SDS011;27037;52.010;4.446;2023-06-22T03:35:08;53.15;;;31.25;;
41293;SDS011;27037;52.010;4.446;2023-06-22T03:37:34;57.42;;;32.17;;
41293;SDS011;27037;52.010;4.446;2023-06-22T03:39:59;72.88;;;45.45;;
41293;SDS011;27037;52.010;4.446;2023-06-22T03:42:25;58.35;;;33.70;;
41293;SDS011;27037;52.010;4.446;2023-06-22T03:44:51;53.50;;;31.65;;
41293;SDS011;27037;52.010;4.446;2023-06-22T03:47:17;51.13;;;30.33;;
41293;SDS011;27037;52.010;4.446;2023-06-22T03:49:43;48.53;;;30.10;;
41293;SDS011;27037;52.010;4.446;2023-06-22T03:52:08;49.92;;;30.55;;
41293;SDS011;27037;52.010;4.446;2023-06-22T03:54:35;50.53;;;29.77;;
41293;SDS011;27037;52.010;4.446;2023-06-22T03:57:01;52.55;;;31.00;;
41293;SDS011;27037;52.010;4.446;2023-06-22T03:59:27;53.90;;;31.67;;
41293;SDS011;27037;52.010;4.446;2023-06-22T04:01:53;52.60;;;31.92;;
41293;SDS011;27037;52.010;4.446;2023-06-22T04:04:18;51.63;;;31.38;;
41293;SDS011;27037;52.010;4.446;2023-06-22T04:06:44;53.33;;;32.45;;
41293;SDS011;27037;52.010;4.446;2023-06-22T04:09:10;56.85;;;33.67;;
41293;SDS011;27037;52.010;4.446;2023-06-22T04:11:35;56.65;;;33.20;;
41293;SDS011;27037;52.010;4.446;2023-06-22T04:14:01;53.28;;;32.75;;
41293;SDS011;27037;52.010;4.446;2023-06-22T04:16:26;55.70;;;34.03;;
41293;SDS011;27037;52.010;4.446;2023-06-22T04:18:52;57.53;;;34.55;;
41293;SDS011;27037;52.010;4.446;2023-06-22T04:21:18;52.00;;;32.53;;
41293;SDS011;27037;52.010;4.446;2023-06-22T04:23:44;58.20;;;35.25;;
41293;SDS011;27037;52.010;4.446;2023-06-22T04:26:11;59.65;;;35.58;;
41293;SDS011;27037;52.010;4.446;2023-06-22T04:28:37;60.47;;;34.58;;
41293;SDS011;27037;52.010;4.446;2023-06-22T04:31:02;57.67;;;35.33;;
41293;SDS011;27037;52.010;4.446;2023-06-22T04:33:28;60.17;;;35.78;;
41293;SDS011;27037;52.010;4.446;2023-06-22T04:35:54;58.00;;;34.60;;
41293;SDS011;27037;52.010;4.446;2023-06-22T04:38:23;62.40;;;34.80;;
41293;SDS011;27037;52.010;4.446;2023-06-22T04:40:49;59.60;;;35.88;;
41293;SDS011;27037;52.010;4.446;2023-06-22T04:43:15;62.58;;;35.83;;
41293;SDS011;27037;52.010;4.446;2023-06-22T04:45:41;57.90;;;34.67;;
41293;SDS011;27037;52.010;4.446;2023-06-22T04:48:07;53.60;;;32.35;;
41293;SDS011;27037;52.010;4.446;2023-06-22T04:50:34;59.78;;;35.67;;
41293;SDS011;27037;52.010;4.446;2023-06-22T04:53:04;56.22;;;33.08;;
41293;SDS011;27037;52.010;4.446;2023-06-22T04:55:30;55.38;;;33.30;;
41293;SDS011;27037;52.010;4.446;2023-06-22T04:57:56;54.42;;;33.00;;
41293;SDS011;27037;52.010;4.446;2023-06-22T05:00:29;49.83;;;30.80;;
41293;SDS011;27037;52.010;4.446;2023-06-22T05:02:56;58.00;;;34.72;;
41293;SDS011;27037;52.010;4.446;2023-06-22T05:05:23;49.90;;;31.67;;
41293;SDS011;27037;52.010;4.446;2023-06-22T05:07:50;50.70;;;30.15;;
41293;SDS011;27037;52.010;4.446;2023-06-22T05:10:18;51.30;;;31.60;;
41293;SDS011;27037;52.010;4.446;2023-06-22T05:12:46;56.55;;;31.75;;
41293;SDS011;27037;52.010;4.446;2023-06-22T05:15:12;52.00;;;32.00;;
41293;SDS011;27037;52.010;4.446;2023-06-22T05:17:38;50.13;;;29.65;;
41293;SDS011;27037;52.010;4.446;2023-06-22T05:20:11;52.65;;;31.65;;
41293;SDS011;27037;52.010;4.446;2023-06-22T05:22:37;43.72;;;27.75;;
41293;SDS011;27037;52.010;4.446;2023-06-22T05:25:04;44.05;;;28.42;;
41293;SDS011;27037;52.010;4.446;2023-06-22T05:27:32;47.33;;;28.90;;
41293;SDS011;27037;52.010;4.446;2023-06-22T05:29:58;46.65;;;28.80;;
41293;SDS011;27037;52.010;4.446;2023-06-22T05:32:24;43.80;;;27.90;;
41293;SDS011;27037;52.010;4.446;2023-06-22T05:34:49;43.78;;;27.48;;
41293;SDS011;27037;52.010;4.446;2023-06-22T05:37:15;43.63;;;26.38;;
41293;SDS011;27037;52.010;4.446;2023-06-22T05:39:40;43.05;;;27.35;;
41293;SDS011;27037;52.010;4.446;2023-06-22T05:42:06;40.08;;;26.45;;
41293;SDS011;27037;52.010;4.446;2023-06-22T05:44:33;41.85;;;26.63;;
41293;SDS011;27037;52.010;4.446;2023-06-22T05:46:59;42.88;;;26.13;;
41293;SDS011;27037;52.010;4.446;2023-06-22T05:49:24;44.35;;;25.25;;
41293;SDS011;27037;52.010;4.446;2023-06-22T05:51:54;36.38;;;23.67;;
41293;SDS011;27037;52.010;4.446;2023-06-22T05:54:21;36.53;;;23.08;;
41293;SDS011;27037;52.010;4.446;2023-06-22T05:56:46;34.38;;;22.20;;
41293;SDS011;27037;52.010;4.446;2023-06-22T05:59:12;33.85;;;21.23;;
41293;SDS011;27037;52.010;4.446;2023-06-22T06:01:38;36.50;;;21.42;;
41293;SDS011;27037;52.010;4.446;2023-06-22T06:04:04;32.55;;;20.38;;
41293;SDS011;27037;52.010;4.446;2023-06-22T06:06:33;29.33;;;19.00;;
41293;SDS011;27037;52.010;4.446;2023-06-22T06:08:59;30.17;;;18.33;;
41293;SDS011;27037;52.010;4.446;2023-06-22T06:11:25;32.42;;;20.45;;
41293;SDS011;27037;52.010;4.446;2023-06-22T06:13:51;27.52;;;17.05;;
41293;SDS011;27037;52.010;4.446;2023-06-22T06:16:17;31.52;;;19.45;;
41293;SDS011;27037;52.010;4.446;2023-06-22T06:18:42;32.25;;;20.38;;
41293;SDS011;27037;52.010;4.446;2023-06-22T06:21:08;33.90;;;21.27;;
41293;SDS011;27037;52.010;4.446;2023-06-22T06:23:34;34.42;;;21.05;;
41293;SDS011;27037;52.010;4.446;2023-06-22T06:25:59;36.97;;;22.42;;
41293;SDS011;27037;52.010;4.446;2023-06-22T06:28:26;35.22;;;22.33;;
41293;SDS011;27037;52.010;4.446;2023-06-22T06:30:52;37.78;;;22.60;;
41293;SDS011;27037;52.010;4.446;2023-06-22T06:33:18;35.47;;;21.02;;
41293;SDS011;27037;52.010;4.446;2023-06-22T06:35:44;31.63;;;21.63;;
41293;SDS011;27037;52.010;4.446;2023-06-22T06:38:09;35.38;;;20.73;;
41293;SDS011;27037;52.010;4.446;2023-06-22T06:40:35;32.97;;;19.80;;
41293;SDS011;27037;52.010;4.446;2023-06-22T06:43:01;32.90;;;21.38;;
41293;SDS011;27037;52.010;4.446;2023-06-22T06:45:27;37.30;;;20.73;;
41293;SDS011;27037;52.010;4.446;2023-06-22T06:47:53;31.27;;;20.13;;
41293;SDS011;27037;52.010;4.446;2023-06-22T06:50:19;28.35;;;18.88;;
41293;SDS011;27037;52.010;4.446;2023-06-22T06:52:45;27.02;;;18.48;;
41293;SDS011;27037;52.010;4.446;2023-06-22T06:55:10;24.77;;;17.35;;
41293;SDS011;27037;52.010;4.446;2023-06-22T06:57:39;25.13;;;16.55;;
41293;SDS011;27037;52.010;4.446;2023-06-22T07:00:07;28.70;;;17.90;;
41293;SDS011;27037;52.010;4.446;2023-06-22T07:02:38;22.75;;;15.57;;
41293;SDS011;27037;52.010;4.446;2023-06-22T07:05:05;26.30;;;16.75;;
41293;SDS011;27037;52.010;4.446;2023-06-22T07:07:31;23.52;;;15.18;;
41293;SDS011;27037;52.010;4.446;2023-06-22T07:09:57;23.23;;;14.25;;
41293;SDS011;27037;52.010;4.446;2023-06-22T07:12:23;18.55;;;13.07;;
41293;SDS011;27037;52.010;4.446;2023-06-22T07:14:49;21.23;;;13.82;;
41293;SDS011;27037;52.010;4.446;2023-06-22T07:17:15;18.02;;;12.10;;
41293;SDS011;27037;52.010;4.446;2023-06-22T07:19:41;17.27;;;11.88;;
41293;SDS011;27037;52.010;4.446;2023-06-22T07:22:07;19.17;;;12.30;;
41293;SDS011;27037;52.010;4.446;2023-06-22T07:24:33;16.60;;;12.65;;
41293;SDS011;27037;52.010;4.446;2023-06-22T07:26:58;17.35;;;10.48;;
41293;SDS011;27037;52.010;4.446;2023-06-22T07:29:24;13.23;;;9.10;;
41293;SDS011;27037;52.010;4.446;2023-06-22T07:31:51;15.15;;;9.32;;
41293;SDS011;27037;52.010;4.446;2023-06-22T07:34:17;15.30;;;9.43;;
41293;SDS011;27037;52.010;4.446;2023-06-22T07:36:43;12.85;;;9.63;;
41293;SDS011;27037;52.010;4.446;2023-06-22T07:39:09;15.85;;;10.32;;
41293;SDS011;27037;52.010;4.446;2023-06-22T07:41:35;13.52;;;8.27;;
41293;SDS011;27037;52.010;4.446;2023-06-22T07:44:01;10.77;;;7.90;;
41293;SDS011;27037;52.010;4.446;2023-06-22T07:46:28;9.98;;;7.68;;
41293;SDS011;27037;52.010;4.446;2023-06-22T07:48:55;12.23;;;7.40;;
41293;SDS011;27037;52.010;4.446;2023-06-22T07:51:21;9.93;;;6.72;;
41293;SDS011;27037;52.010;4.446;2023-06-22T07:53:47;8.55;;;6.50;;
41293;SDS011;27037;52.010;4.446;2023-06-22T07:56:13;9.95;;;6.70;;
41293;SDS011;27037;52.010;4.446;2023-06-22T07:58:43;11.30;;;7.18;;
41293;SDS011;27037;52.010;4.446;2023-06-22T08:01:13;11.57;;;6.13;;
41293;SDS011;27037;52.010;4.446;2023-06-22T08:03:40;13.35;;;7.38;;
41293;SDS011;27037;52.010;4.446;2023-06-22T08:06:06;12.82;;;6.55;;
41293;SDS011;27037;52.010;4.446;2023-06-22T08:08:34;12.45;;;5.57;;
41293;SDS011;27037;52.010;4.446;2023-06-22T08:11:00;9.57;;;6.25;;
41293;SDS011;27037;52.010;4.446;2023-06-22T08:13:25;10.05;;;6.13;;
41293;SDS011;27037;52.010;4.446;2023-06-22T08:15:51;11.05;;;6.00;;
41293;SDS011;27037;52.010;4.446;2023-06-22T08:18:17;6.65;;;5.43;;
41293;SDS011;27037;52.010;4.446;2023-06-22T08:20:42;4.63;;;3.25;;
41293;SDS011;27037;52.010;4.446;2023-06-22T08:23:08;7.80;;;3.72;;
41293;SDS011;27037;52.010;4.446;2023-06-22T08:25:34;5.57;;;3.88;;
41293;SDS011;27037;52.010;4.446;2023-06-22T08:28:00;5.35;;;3.97;;
41293;SDS011;27037;52.010;4.446;2023-06-22T08:30:27;5.90;;;3.75;;
41293;SDS011;27037;52.010;4.446;2023-06-22T08:32:53;5.85;;;3.90;;
41293;SDS011;27037;52.010;4.446;2023-06-22T08:35:20;4.90;;;3.70;;
41293;SDS011;27037;52.010;4.446;2023-06-22T08:37:47;4.90;;;3.38;;
41293;SDS011;27037;52.010;4.446;2023-06-22T08:40:17;4.53;;;2.95;;
41293;SDS011;27037;52.010;4.446;2023-06-22T08:42:44;4.72;;;3.10;;
41293;SDS011;27037;52.010;4.446;2023-06-22T08:45:10;5.30;;;2.70;;
41293;SDS011;27037;52.010;4.446;2023-06-22T08:47:36;3.85;;;2.53;;
41293;SDS011;27037;52.010;4.446;2023-06-22T08:50:02;4.75;;;2.70;;
41293;SDS011;27037;52.010;4.446;2023-06-22T08:52:28;3.92;;;2.72;;
41293;SDS011;27037;52.010;4.446;2023-06-22T08:54:54;7.65;;;3.53;;
41293;SDS011;27037;52.010;4.446;2023-06-22T08:57:20;3.78;;;3.00;;
41293;SDS011;27037;52.010;4.446;2023-06-22T08:59:46;8.48;;;3.53;;
41293;SDS011;27037;52.010;4.446;2023-06-22T09:02:12;5.63;;;3.58;;
41293;SDS011;27037;52.010;4.446;2023-06-22T09:04:37;6.07;;;3.70;;
41293;SDS011;27037;52.010;4.446;2023-06-22T09:07:03;7.22;;;5.30;;
41293;SDS011;27037;52.010;4.446;2023-06-22T09:09:29;8.05;;;5.40;;
41293;SDS011;27037;52.010;4.446;2023-06-22T09:11:55;6.63;;;5.15;;
41293;SDS011;27037;52.010;4.446;2023-06-22T09:14:20;6.95;;;5.07;;
41293;SDS011;27037;52.010;4.446;2023-06-22T09:16:46;9.25;;;5.75;;
41293;SDS011;27037;52.010;4.446;2023-06-22T09:19:11;10.70;;;6.28;;
41293;SDS011;27037;52.010;4.446;2023-06-22T09:21:37;9.52;;;6.28;;
41293;SDS011;27037;52.010;4.446;2023-06-22T09:24:03;14.00;;;7.03;;
41293;SDS011;27037;52.010;4.446;2023-06-22T09:26:29;11.07;;;7.78;;
41293;SDS011;27037;52.010;4.446;2023-06-22T09:28:54;9.43;;;6.95;;
41293;SDS011;27037;52.010;4.446;2023-06-22T09:31:20;13.35;;;9.70;;
41293;SDS011;27037;52.010;4.446;2023-06-22T09:33:50;15.18;;;9.07;;
41293;SDS011;27037;52.010;4.446;2023-06-22T09:36:17;14.73;;;9.07;;
41293;SDS011;27037;52.010;4.446;2023-06-22T09:38:43;9.75;;;6.50;;
41293;SDS011;27037;52.010;4.446;2023-06-22T09:41:09;8.20;;;4.28;;
41293;SDS011;27037;52.010;4.446;2023-06-22T09:43:34;12.07;;;8.35;;
41293;SDS011;27037;52.010;4.446;2023-06-22T09:46:01;12.05;;;7.60;;
41293;SDS011;27037;52.010;4.446;2023-06-22T09:48:27;9.57;;;6.47;;
41293;SDS011;27037;52.010;4.446;2023-06-22T09:50:54;11.40;;;6.70;;
41293;SDS011;27037;52.010;4.446;2023-06-22T09:53:21;9.93;;;6.95;;
41293;SDS011;27037;52.010;4.446;2023-06-22T09:55:46;6.25;;;4.13;;
41293;SDS011;27037;52.010;4.446;2023-06-22T09:58:12;8.52;;;4.18;;
41293;SDS011;27037;52.010;4.446;2023-06-22T10:00:38;9.80;;;6.30;;
41293;SDS011;27037;52.010;4.446;2023-06-22T10:03:03;12.15;;;7.82;;
41293;SDS011;27037;52.010;4.446;2023-06-22T10:05:29;12.90;;;7.85;;
41293;SDS011;27037;52.010;4.446;2023-06-22T10:07:54;11.57;;;6.63;;
41293;SDS011;27037;52.010;4.446;2023-06-22T10:10:20;9.65;;;7.00;;
41293;SDS011;27037;52.010;4.446;2023-06-22T10:12:46;9.70;;;6.18;;
41293;SDS011;27037;52.010;4.446;2023-06-22T10:15:14;7.70;;;4.78;;
41293;SDS011;27037;52.010;4.446;2023-06-22T10:17:40;10.05;;;4.97;;
41293;SDS011;27037;52.010;4.446;2023-06-22T10:20:06;8.38;;;5.88;;
41293;SDS011;27037;52.010;4.446;2023-06-22T10:22:43;9.30;;;6.95;;
41293;SDS011;27037;52.010;4.446;2023-06-22T10:25:11;10.52;;;7.82;;
41293;SDS011;27037;52.010;4.446;2023-06-22T10:27:38;11.80;;;7.95;;
41293;SDS011;27037;52.010;4.446;2023-06-22T10:30:07;10.00;;;6.90;;
41293;SDS011;27037;52.010;4.446;2023-06-22T10:32:40;10.07;;;6.93;;
41293;SDS011;27037;52.010;4.446;2023-06-22T10:35:07;10.23;;;6.22;;
41293;SDS011;27037;52.010;4.446;2023-06-22T10:37:35;14.43;;;7.70;;
41293;SDS011;27037;52.010;4.446;2023-06-22T10:40:01;9.73;;;6.82;;
41293;SDS011;27037;52.010;4.446;2023-06-22T10:42:28;12.25;;;7.72;;
41293;SDS011;27037;52.010;4.446;2023-06-22T10:44:54;9.25;;;6.55;;
41293;SDS011;27037;52.010;4.446;2023-06-22T10:47:19;14.43;;;7.38;;
41293;SDS011;27037;52.010;4.446;2023-06-22T10:49:45;12.63;;;7.05;;
41293;SDS011;27037;52.010;4.446;2023-06-22T10:52:11;10.50;;;7.07;;
41293;SDS011;27037;52.010;4.446;2023-06-22T10:54:37;10.93;;;7.72;;
41293;SDS011;27037;52.010;4.446;2023-06-22T10:57:03;12.73;;;7.90;;
41293;SDS011;27037;52.010;4.446;2023-06-22T10:59:29;10.00;;;7.85;;
41293;SDS011;27037;52.010;4.446;2023-06-22T11:01:55;12.35;;;9.63;;
41293;SDS011;27037;52.010;4.446;2023-06-22T11:04:21;13.32;;;8.57;;
41293;SDS011;27037;52.010;4.446;2023-06-22T11:06:48;13.40;;;8.80;;
41293;SDS011;27037;52.010;4.446;2023-06-22T11:09:14;12.15;;;9.65;;
41293;SDS011;27037;52.010;4.446;2023-06-22T11:11:45;14.63;;;11.20;;
41293;SDS011;27037;52.010;4.446;2023-06-22T11:14:15;16.33;;;8.35;;
41293;SDS011;27037;52.010;4.446;2023-06-22T11:16:41;12.13;;;8.00;;
41293;SDS011;27037;52.010;4.446;2023-06-22T11:19:07;13.23;;;8.35;;
41293;SDS011;27037;52.010;4.446;2023-06-22T11:21:33;11.75;;;8.73;;
41293;SDS011;27037;52.010;4.446;2023-06-22T11:23:58;13.48;;;10.65;;
41293;SDS011;27037;52.010;4.446;2023-06-22T11:26:25;18.42;;;10.55;;
41293;SDS011;27037;52.010;4.446;2023-06-22T11:28:54;13.43;;;10.27;;
41293;SDS011;27037;52.010;4.446;2023-06-22T11:31:20;13.30;;;9.02;;
41293;SDS011;27037;52.010;4.446;2023-06-22T11:33:45;14.32;;;10.63;;
41293;SDS011;27037;52.010;4.446;2023-06-22T11:36:12;13.02;;;8.40;;
41293;SDS011;27037;52.010;4.446;2023-06-22T11:38:39;12.90;;;6.80;;
41293;SDS011;27037;52.010;4.446;2023-06-22T11:41:08;10.32;;;7.57;;
41293;SDS011;27037;52.010;4.446;2023-06-22T11:43:34;12.50;;;7.72;;
41293;SDS011;27037;52.010;4.446;2023-06-22T11:46:02;15.68;;;9.85;;
41293;SDS011;27037;52.010;4.446;2023-06-22T11:48:28;14.35;;;10.20;;
41293;SDS011;27037;52.010;4.446;2023-06-22T11:50:54;20.13;;;10.05;;
41293;SDS011;27037;52.010;4.446;2023-06-22T11:53:24;17.17;;;11.98;;
41293;SDS011;27037;52.010;4.446;2023-06-22T11:55:51;15.90;;;10.95;;
41293;SDS011;27037;52.010;4.446;2023-06-22T11:58:17;17.42;;;11.82;;
41293;SDS011;27037;52.010;4.446;2023-06-22T12:00:43;18.65;;;12.48;;
41293;SDS011;27037;52.010;4.446;2023-06-22T12:03:10;21.10;;;14.55;;
41293;SDS011;27037;52.010;4.446;2023-06-22T12:05:36;24.70;;;17.10;;
41293;SDS011;27037;52.010;4.446;2023-06-22T12:08:02;24.67;;;17.20;;
41293;SDS011;27037;52.010;4.446;2023-06-22T12:10:27;24.15;;;17.42;;
41293;SDS011;27037;52.010;4.446;2023-06-22T12:12:56;20.48;;;15.40;;
41293;SDS011;27037;52.010;4.446;2023-06-22T12:15:25;24.67;;;17.60;;
41293;SDS011;27037;52.010;4.446;2023-06-22T12:17:51;23.33;;;16.85;;
41293;SDS011;27037;52.010;4.446;2023-06-22T12:20:17;27.92;;;18.40;;
41293;SDS011;27037;52.010;4.446;2023-06-22T12:22:43;24.05;;;17.58;;
41293;SDS011;27037;52.010;4.446;2023-06-22T12:25:08;22.05;;;16.67;;
41293;SDS011;27037;52.010;4.446;2023-06-22T12:27:35;26.95;;;18.45;;
41293;SDS011;27037;52.010;4.446;2023-06-22T12:30:01;23.83;;;17.58;;
41293;SDS011;27037;52.010;4.446;2023-06-22T12:32:27;27.85;;;17.30;;
41293;SDS011;27037;52.010;4.446;2023-06-22T12:34:52;22.58;;;15.90;;
41293;SDS011;27037;52.010;4.446;2023-06-22T12:37:18;23.63;;;15.43;;
41293;SDS011;27037;52.010;4.446;2023-06-22T12:39:44;20.40;;;15.15;;
41293;SDS011;27037;52.010;4.446;2023-06-22T12:42:10;22.75;;;15.13;;
41293;SDS011;27037;52.010;4.446;2023-06-22T12:44:37;22.58;;;15.68;;
41293;SDS011;27037;52.010;4.446;2023-06-22T12:47:03;24.83;;;16.30;;
41293;SDS011;27037;52.010;4.446;2023-06-22T12:49:29;21.10;;;15.43;;
41293;SDS011;27037;52.010;4.446;2023-06-22T12:51:55;22.83;;;14.95;;
41293;SDS011;27037;52.010;4.446;2023-06-22T12:54:20;20.80;;;16.25;;
41293;SDS011;27037;52.010;4.446;2023-06-22T12:56:46;21.85;;;15.73;;
41293;SDS011;27037;52.010;4.446;2023-06-22T12:59:12;25.60;;;18.70;;
41293;SDS011;27037;52.010;4.446;2023-06-22T13:01:37;32.08;;;18.88;;
41293;SDS011;27037;52.010;4.446;2023-06-22T13:04:03;25.65;;;17.27;;
41293;SDS011;27037;52.010;4.446;2023-06-22T13:06:29;25.50;;;18.92;;
41293;SDS011;27037;52.010;4.446;2023-06-22T13:08:55;24.42;;;19.23;;
41293;SDS011;27037;52.010;4.446;2023-06-22T13:11:20;31.50;;;20.20;;
41293;SDS011;27037;52.010;4.446;2023-06-22T13:13:46;28.85;;;21.00;;
41293;SDS011;27037;52.010;4.446;2023-06-22T13:16:12;28.10;;;20.85;;
41293;SDS011;27037;52.010;4.446;2023-06-22T13:18:38;29.95;;;20.10;;
41293;SDS011;27037;52.010;4.446;2023-06-22T13:21:04;27.60;;;18.88;;
41293;SDS011;27037;52.010;4.446;2023-06-22T13:23:30;27.58;;;19.55;;
41293;SDS011;27037;52.010;4.446;2023-06-22T13:25:57;28.75;;;21.40;;
41293;SDS011;27037;52.010;4.446;2023-06-22T13:28:23;34.22;;;20.67;;
41293;SDS011;27037;52.010;4.446;2023-06-22T13:30:48;26.67;;;18.63;;
41293;SDS011;27037;52.010;4.446;2023-06-22T13:33:14;26.95;;;19.98;;
41293;SDS011;27037;52.010;4.446;2023-06-22T13:35:40;26.63;;;18.83;;
41293;SDS011;27037;52.010;4.446;2023-06-22T13:38:09;26.63;;;19.40;;
41293;SDS011;27037;52.010;4.446;2023-06-22T13:40:35;26.92;;;19.73;;
41293;SDS011;27037;52.010;4.446;2023-06-22T13:43:03;23.08;;;17.65;;
41293;SDS011;27037;52.010;4.446;2023-06-22T13:45:29;21.83;;;17.33;;
41293;SDS011;27037;52.010;4.446;2023-06-22T13:47:55;27.02;;;18.33;;
41293;SDS011;27037;52.010;4.446;2023-06-22T13:50:20;27.13;;;16.15;;
41293;SDS011;27037;52.010;4.446;2023-06-22T13:52:46;25.95;;;16.38;;
41293;SDS011;27037;52.010;4.446;2023-06-22T13:55:12;25.08;;;18.75;;
41293;SDS011;27037;52.010;4.446;2023-06-22T13:57:39;22.40;;;17.90;;
41293;SDS011;27037;52.010;4.446;2023-06-22T14:00:05;25.58;;;18.58;;
41293;SDS011;27037;52.010;4.446;2023-06-22T14:02:32;27.92;;;18.23;;
41293;SDS011;27037;52.010;4.446;2023-06-22T14:04:58;26.38;;;17.77;;
41293;SDS011;27037;52.010;4.446;2023-06-22T14:07:24;19.42;;;15.30;;
41293;SDS011;27037;52.010;4.446;2023-06-22T14:09:50;23.25;;;17.73;;
41293;SDS011;27037;52.010;4.446;2023-06-22T14:12:15;25.05;;;17.30;;
41293;SDS011;27037;52.010;4.446;2023-06-22T14:14:43;24.83;;;17.80;;
41293;SDS011;27037;52.010;4.446;2023-06-22T14:17:09;27.67;;;16.88;;
41293;SDS011;27037;52.010;4.446;2023-06-22T14:19:35;22.40;;;17.23;;
41293;SDS011;27037;52.010;4.446;2023-06-22T14:22:01;21.92;;;17.70;;
41293;SDS011;27037;52.010;4.446;2023-06-22T14:24:27;22.13;;;15.68;;
41293;SDS011;27037;52.010;4.446;2023-06-22T14:26:53;24.60;;;17.67;;